sensor_id;sensor_type;location;lat;lon;timestamp;temperature;humidity
6581;DHT22;3324;50.796;7.228;2023-09-19T00:01:07;17.10;99.90
6581;DHT22;3324;50.796;7.228;2023-09-19T00:03:34;17.00;99.90
6581;DHT22;3324;50.796;7.228;2023-09-19T00:06:02;17.00;99.90
6581;DHT22;3324;50.796;7.228;2023-09-19T00:08:28;17.00;99.90
6581;DHT22;3324;50.796;7.228;2023-09-19T00:10:53;17.00;99.90
6581;DHT22;3324;50.796;7.228;2023-09-19T00:13:20;17.00;99.90
6581;DHT22;3324;50.796;7.228;2023-09-19T00:15:46;16.90;99.90
6581;DHT22;3324;50.796;7.228;2023-09-19T00:18:14;16.90;99.90
6581;DHT22;3324;50.796;7.228;2023-09-19T00:20:41;16.90;99.90
6581;DHT22;3324;50.796;7.228;2023-09-19T00:23:07;16.90;99.90
6581;DHT22;3324;50.796;7.228;2023-09-19T00:25:36;16.80;99.90
6581;DHT22;3324;50.796;7.228;2023-09-19T00:28:02;16.80;99.90
6581;DHT22;3324;50.796;7.228;2023-09-19T00:30:29;16.80;99.90
6581;DHT22;3324;50.796;7.228;2023-09-19T00:32:54;16.80;99.90
6581;DHT22;3324;50.796;7.228;2023-09-19T00:35:23;16.80;99.90
6581;DHT22;3324;50.796;7.228;2023-09-19T00:37:52;16.80;99.90
6581;DHT22;3324;50.796;7.228;2023-09-19T00:40:18;16.70;99.90
6581;DHT22;3324;50.796;7.228;2023-09-19T00:42:44;16.70;99.90
6581;DHT22;3324;50.796;7.228;2023-09-19T00:45:11;16.70;99.90
6581;DHT22;3324;50.796;7.228;2023-09-19T00:47:43;16.70;99.90
6581;DHT22;3324;50.796;7.228;2023-09-19T00:50:10;16.60;99.90
6581;DHT22;3324;50.796;7.228;2023-09-19T00:52:40;16.60;99.90
6581;DHT22;3324;50.796;7.228;2023-09-19T00:55:06;16.60;99.90
6581;DHT22;3324;50.796;7.228;2023-09-19T00:57:32;16.50;99.90
6581;DHT22;3324;50.796;7.228;2023-09-19T00:59:58;16.50;99.90
6581;DHT22;3324;50.796;7.228;2023-09-19T01:02:24;16.40;99.90
6581;DHT22;3324;50.796;7.228;2023-09-19T01:04:52;16.40;99.90
6581;DHT22;3324;50.796;7.228;2023-09-19T01:07:18;16.30;99.90
6581;DHT22;3324;50.796;7.228;2023-09-19T01:09:44;16.40;99.90
6581;DHT22;3324;50.796;7.228;2023-09-19T01:12:10;16.40;99.90
6581;DHT22;3324;50.796;7.228;2023-09-19T01:19:45;16.40;99.90
6581;DHT22;3324;50.796;7.228;2023-09-19T01:22:37;16.40;99.90
6581;DHT22;3324;50.796;7.228;2023-09-19T01:30:09;16.60;99.90
6581;DHT22;3324;50.796;7.228;2023-09-19T01:32:34;16.70;99.90
6581;DHT22;3324;50.796;7.228;2023-09-19T01:35:03;16.70;99.90
6581;DHT22;3324;50.796;7.228;2023-09-19T01:37:31;16.80;99.90
6581;DHT22;3324;50.796;7.228;2023-09-19T01:40:01;16.90;99.90
6581;DHT22;3324;50.796;7.228;2023-09-19T01:44:59;16.80;99.90
6581;DHT22;3324;50.796;7.228;2023-09-19T01:47:32;16.80;99.90
6581;DHT22;3324;50.796;7.228;2023-09-19T01:52:29;16.80;99.90
6581;DHT22;3324;50.796;7.228;2023-09-19T01:55:00;16.80;99.90
6581;DHT22;3324;50.796;7.228;2023-09-19T01:57:34;16.80;99.90
6581;DHT22;3324;50.796;7.228;2023-09-19T02:00:10;16.80;99.90
6581;DHT22;3324;50.796;7.228;2023-09-19T02:02:37;16.80;99.90
6581;DHT22;3324;50.796;7.228;2023-09-19T02:05:04;16.70;99.90
6581;DHT22;3324;50.796;7.228;2023-09-19T02:07:30;16.70;99.90
6581;DHT22;3324;50.796;7.228;2023-09-19T02:09:57;16.70;99.90
6581;DHT22;3324;50.796;7.228;2023-09-19T02:12:24;16.70;99.90
6581;DHT22;3324;50.796;7.228;2023-09-19T02:14:49;16.80;99.90
6581;DHT22;3324;50.796;7.228;2023-09-19T02:17:15;16.70;99.90
6581;DHT22;3324;50.796;7.228;2023-09-19T02:19:41;16.70;99.90
6581;DHT22;3324;50.796;7.228;2023-09-19T02:22:07;16.70;99.90
6581;DHT22;3324;50.796;7.228;2023-09-19T02:24:33;16.70;99.90
6581;DHT22;3324;50.796;7.228;2023-09-19T02:26:58;16.70;99.90
6581;DHT22;3324;50.796;7.228;2023-09-19T02:29:25;16.70;99.90
6581;DHT22;3324;50.796;7.228;2023-09-19T02:31:52;16.70;99.90
6581;DHT22;3324;50.796;7.228;2023-09-19T02:34:18;16.60;99.90
6581;DHT22;3324;50.796;7.228;2023-09-19T02:36:44;16.60;99.90
6581;DHT22;3324;50.796;7.228;2023-09-19T02:39:10;16.50;99.90
6581;DHT22;3324;50.796;7.228;2023-09-19T02:41:36;16.60;99.90
6581;DHT22;3324;50.796;7.228;2023-09-19T02:44:02;16.60;99.90
6581;DHT22;3324;50.796;7.228;2023-09-19T02:46:27;16.50;99.90
6581;DHT22;3324;50.796;7.228;2023-09-19T02:48:53;16.60;99.90
6581;DHT22;3324;50.796;7.228;2023-09-19T02:51:20;16.50;99.90
6581;DHT22;3324;50.796;7.228;2023-09-19T02:53:45;16.50;99.90
6581;DHT22;3324;50.796;7.228;2023-09-19T02:56:13;16.40;99.90
6581;DHT22;3324;50.796;7.228;2023-09-19T02:58:39;16.40;99.90
6581;DHT22;3324;50.796;7.228;2023-09-19T03:01:08;16.40;99.90
6581;DHT22;3324;50.796;7.228;2023-09-19T03:03:33;16.30;99.90
6581;DHT22;3324;50.796;7.228;2023-09-19T03:06:00;16.30;99.90
6581;DHT22;3324;50.796;7.228;2023-09-19T03:08:29;16.20;99.90
6581;DHT22;3324;50.796;7.228;2023-09-19T03:10:54;16.20;99.90
6581;DHT22;3324;50.796;7.228;2023-09-19T03:13:20;16.10;99.90
6581;DHT22;3324;50.796;7.228;2023-09-19T03:15:45;16.10;99.90
6581;DHT22;3324;50.796;7.228;2023-09-19T03:18:15;16.10;99.90
6581;DHT22;3324;50.796;7.228;2023-09-19T03:20:41;16.00;99.90
6581;DHT22;3324;50.796;7.228;2023-09-19T03:23:06;16.00;99.90
6581;DHT22;3324;50.796;7.228;2023-09-19T03:25:34;15.90;99.90
6581;DHT22;3324;50.796;7.228;2023-09-19T03:28:00;15.90;99.90
6581;DHT22;3324;50.796;7.228;2023-09-19T03:30:26;15.80;99.90
6581;DHT22;3324;50.796;7.228;2023-09-19T03:32:51;15.90;99.90
6581;DHT22;3324;50.796;7.228;2023-09-19T03:35:17;16.00;99.90
6581;DHT22;3324;50.796;7.228;2023-09-19T03:37:43;16.00;99.90
6581;DHT22;3324;50.796;7.228;2023-09-19T03:40:09;16.00;99.90
6581;DHT22;3324;50.796;7.228;2023-09-19T03:42:39;16.10;99.90
6581;DHT22;3324;50.796;7.228;2023-09-19T03:45:04;16.10;99.90
6581;DHT22;3324;50.796;7.228;2023-09-19T03:47:30;16.10;99.90
6581;DHT22;3324;50.796;7.228;2023-09-19T03:49:56;16.10;99.90
6581;DHT22;3324;50.796;7.228;2023-09-19T03:52:21;16.10;99.90
6581;DHT22;3324;50.796;7.228;2023-09-19T03:54:47;16.10;99.90
6581;DHT22;3324;50.796;7.228;2023-09-19T03:57:12;16.00;99.90
6581;DHT22;3324;50.796;7.228;2023-09-19T03:59:41;16.00;99.90
6581;DHT22;3324;50.796;7.228;2023-09-19T04:02:08;16.10;99.90
6581;DHT22;3324;50.796;7.228;2023-09-19T04:04:37;16.00;99.90
6581;DHT22;3324;50.796;7.228;2023-09-19T04:07:04;16.00;99.90
6581;DHT22;3324;50.796;7.228;2023-09-19T04:09:30;16.00;99.90
6581;DHT22;3324;50.796;7.228;2023-09-19T04:11:55;16.00;99.90
6581;DHT22;3324;50.796;7.228;2023-09-19T04:14:20;16.10;99.90
6581;DHT22;3324;50.796;7.228;2023-09-19T04:16:46;16.00;99.90
6581;DHT22;3324;50.796;7.228;2023-09-19T04:19:11;16.00;99.90
6581;DHT22;3324;50.796;7.228;2023-09-19T04:21:38;16.00;99.90
6581;DHT22;3324;50.796;7.228;2023-09-19T04:24:03;16.00;99.90
6581;DHT22;3324;50.796;7.228;2023-09-19T04:26:29;15.90;99.90
6581;DHT22;3324;50.796;7.228;2023-09-19T04:28:54;15.90;99.90
6581;DHT22;3324;50.796;7.228;2023-09-19T04:31:21;15.90;99.90
6581;DHT22;3324;50.796;7.228;2023-09-19T04:33:47;15.90;99.90
6581;DHT22;3324;50.796;7.228;2023-09-19T04:36:12;15.90;99.90
6581;DHT22;3324;50.796;7.228;2023-09-19T04:38:38;15.90;99.90
6581;DHT22;3324;50.796;7.228;2023-09-19T04:41:03;15.90;99.90
6581;DHT22;3324;50.796;7.228;2023-09-19T04:43:29;15.90;99.90
6581;DHT22;3324;50.796;7.228;2023-09-19T04:45:55;15.80;99.90
6581;DHT22;3324;50.796;7.228;2023-09-19T04:48:21;15.70;99.90
6581;DHT22;3324;50.796;7.228;2023-09-19T04:50:48;15.70;99.90
6581;DHT22;3324;50.796;7.228;2023-09-19T04:53:14;15.70;99.90
6581;DHT22;3324;50.796;7.228;2023-09-19T04:55:39;15.60;99.90
6581;DHT22;3324;50.796;7.228;2023-09-19T04:58:04;15.60;99.90
6581;DHT22;3324;50.796;7.228;2023-09-19T05:00:30;15.60;99.90
6581;DHT22;3324;50.796;7.228;2023-09-19T05:03:00;15.50;99.90
6581;DHT22;3324;50.796;7.228;2023-09-19T05:05:25;15.50;99.90
6581;DHT22;3324;50.796;7.228;2023-09-19T05:07:51;15.50;99.90
6581;DHT22;3324;50.796;7.228;2023-09-19T05:10:18;15.50;99.90
6581;DHT22;3324;50.796;7.228;2023-09-19T05:12:44;15.40;99.90
6581;DHT22;3324;50.796;7.228;2023-09-19T05:15:13;15.50;99.90
6581;DHT22;3324;50.796;7.228;2023-09-19T05:17:42;15.50;99.90
6581;DHT22;3324;50.796;7.228;2023-09-19T05:20:12;15.60;99.90
6581;DHT22;3324;50.796;7.228;2023-09-19T05:22:50;15.50;99.90
6581;DHT22;3324;50.796;7.228;2023-09-19T05:25:15;15.50;99.90
6581;DHT22;3324;50.796;7.228;2023-09-19T05:27:43;15.50;99.90
6581;DHT22;3324;50.796;7.228;2023-09-19T05:30:09;15.50;99.90
6581;DHT22;3324;50.796;7.228;2023-09-19T05:32:35;15.50;99.90
6581;DHT22;3324;50.796;7.228;2023-09-19T05:35:00;15.50;99.90
6581;DHT22;3324;50.796;7.228;2023-09-19T05:37:26;15.60;99.90
6581;DHT22;3324;50.796;7.228;2023-09-19T05:39:51;15.60;99.90
6581;DHT22;3324;50.796;7.228;2023-09-19T05:42:19;15.60;99.90
6581;DHT22;3324;50.796;7.228;2023-09-19T05:44:44;15.50;99.90
6581;DHT22;3324;50.796;7.228;2023-09-19T05:47:10;15.50;99.90
6581;DHT22;3324;50.796;7.228;2023-09-19T05:49:35;15.50;99.90
6581;DHT22;3324;50.796;7.228;2023-09-19T05:52:07;15.50;99.90
6581;DHT22;3324;50.796;7.228;2023-09-19T05:54:33;15.50;99.90
6581;DHT22;3324;50.796;7.228;2023-09-19T05:57:00;15.50;99.90
6581;DHT22;3324;50.796;7.228;2023-09-19T05:59:25;15.50;99.90
6581;DHT22;3324;50.796;7.228;2023-09-19T06:01:51;15.50;99.90
6581;DHT22;3324;50.796;7.228;2023-09-19T06:04:17;15.50;99.90
6581;DHT22;3324;50.796;7.228;2023-09-19T06:06:44;15.50;99.90
6581;DHT22;3324;50.796;7.228;2023-09-19T06:09:10;15.50;99.90
6581;DHT22;3324;50.796;7.228;2023-09-19T06:11:35;15.50;99.90
6581;DHT22;3324;50.796;7.228;2023-09-19T06:14:01;15.50;99.90
6581;DHT22;3324;50.796;7.228;2023-09-19T06:16:30;15.50;99.90
6581;DHT22;3324;50.796;7.228;2023-09-19T06:18:57;15.50;99.90
6581;DHT22;3324;50.796;7.228;2023-09-19T06:21:25;15.50;99.90
6581;DHT22;3324;50.796;7.228;2023-09-19T06:23:52;15.50;99.90
6581;DHT22;3324;50.796;7.228;2023-09-19T06:26:17;15.50;99.90
6581;DHT22;3324;50.796;7.228;2023-09-19T06:28:43;15.50;99.90
6581;DHT22;3324;50.796;7.228;2023-09-19T06:31:09;15.50;99.90
6581;DHT22;3324;50.796;7.228;2023-09-19T06:33:35;15.50;99.90
6581;DHT22;3324;50.796;7.228;2023-09-19T06:36:03;15.60;99.90
6581;DHT22;3324;50.796;7.228;2023-09-19T06:38:30;15.60;99.90
6581;DHT22;3324;50.796;7.228;2023-09-19T06:40:58;15.60;99.90
6581;DHT22;3324;50.796;7.228;2023-09-19T06:43:23;15.70;99.90
6581;DHT22;3324;50.796;7.228;2023-09-19T06:45:49;15.60;99.90
6581;DHT22;3324;50.796;7.228;2023-09-19T06:48:17;15.70;99.90
6581;DHT22;3324;50.796;7.228;2023-09-19T06:50:43;15.70;99.90
6581;DHT22;3324;50.796;7.228;2023-09-19T06:53:09;15.70;99.90
6581;DHT22;3324;50.796;7.228;2023-09-19T06:55:35;15.70;99.90
6581;DHT22;3324;50.796;7.228;2023-09-19T06:58:02;15.60;99.90
6581;DHT22;3324;50.796;7.228;2023-09-19T07:00:27;15.60;99.90
6581;DHT22;3324;50.796;7.228;2023-09-19T07:05:22;15.70;99.90
6581;DHT22;3324;50.796;7.228;2023-09-19T07:07:48;15.70;99.90
6581;DHT22;3324;50.796;7.228;2023-09-19T07:10:13;15.70;99.90
6581;DHT22;3324;50.796;7.228;2023-09-19T07:12:39;15.70;99.90
6581;DHT22;3324;50.796;7.228;2023-09-19T07:15:06;15.80;99.90
6581;DHT22;3324;50.796;7.228;2023-09-19T07:17:32;15.80;99.90
6581;DHT22;3324;50.796;7.228;2023-09-19T07:19:58;15.80;99.90
6581;DHT22;3324;50.796;7.228;2023-09-19T07:22:24;15.90;99.90
6581;DHT22;3324;50.796;7.228;2023-09-19T07:24:49;16.00;99.90
6581;DHT22;3324;50.796;7.228;2023-09-19T07:27:15;16.00;99.90
6581;DHT22;3324;50.796;7.228;2023-09-19T07:29:41;16.00;99.90
6581;DHT22;3324;50.796;7.228;2023-09-19T07:32:07;16.00;99.90
6581;DHT22;3324;50.796;7.228;2023-09-19T07:34:33;16.00;99.90
6581;DHT22;3324;50.796;7.228;2023-09-19T07:36:59;16.00;99.90
6581;DHT22;3324;50.796;7.228;2023-09-19T07:39:24;16.10;99.90
6581;DHT22;3324;50.796;7.228;2023-09-19T07:41:50;16.20;99.90
6581;DHT22;3324;50.796;7.228;2023-09-19T07:44:15;16.30;99.90
6581;DHT22;3324;50.796;7.228;2023-09-19T07:46:42;16.40;99.90
6581;DHT22;3324;50.796;7.228;2023-09-19T07:49:09;16.50;99.90
6581;DHT22;3324;50.796;7.228;2023-09-19T07:51:35;16.50;99.90
6581;DHT22;3324;50.796;7.228;2023-09-19T07:54:01;16.50;99.90
6581;DHT22;3324;50.796;7.228;2023-09-19T07:56:27;16.60;99.90
6581;DHT22;3324;50.796;7.228;2023-09-19T07:58:53;16.50;99.90
6581;DHT22;3324;50.796;7.228;2023-09-19T08:01:18;16.50;99.90
6581;DHT22;3324;50.796;7.228;2023-09-19T08:03:44;16.60;99.90
6581;DHT22;3324;50.796;7.228;2023-09-19T08:06:10;16.60;99.90
6581;DHT22;3324;50.796;7.228;2023-09-19T08:08:36;16.60;99.90
6581;DHT22;3324;50.796;7.228;2023-09-19T08:11:05;16.70;99.90
6581;DHT22;3324;50.796;7.228;2023-09-19T08:13:37;16.70;99.90
6581;DHT22;3324;50.796;7.228;2023-09-19T08:16:06;16.80;99.90
6581;DHT22;3324;50.796;7.228;2023-09-19T08:18:32;16.90;99.90
6581;DHT22;3324;50.796;7.228;2023-09-19T08:20:58;16.90;99.90
6581;DHT22;3324;50.796;7.228;2023-09-19T08:23:25;17.00;99.90
6581;DHT22;3324;50.796;7.228;2023-09-19T08:25:55;17.00;99.90
6581;DHT22;3324;50.796;7.228;2023-09-19T08:28:21;17.10;99.90
6581;DHT22;3324;50.796;7.228;2023-09-19T08:30:50;17.10;99.90
6581;DHT22;3324;50.796;7.228;2023-09-19T08:33:16;17.10;99.90
6581;DHT22;3324;50.796;7.228;2023-09-19T08:35:41;17.20;99.90
6581;DHT22;3324;50.796;7.228;2023-09-19T08:38:08;17.20;99.90
6581;DHT22;3324;50.796;7.228;2023-09-19T08:40:37;17.30;99.90
6581;DHT22;3324;50.796;7.228;2023-09-19T08:43:05;17.40;99.90
6581;DHT22;3324;50.796;7.228;2023-09-19T08:45:33;17.50;99.90
6581;DHT22;3324;50.796;7.228;2023-09-19T08:50:46;17.70;99.90
6581;DHT22;3324;50.796;7.228;2023-09-19T08:53:14;17.80;99.90
6581;DHT22;3324;50.796;7.228;2023-09-19T08:55:41;17.90;99.90
6581;DHT22;3324;50.796;7.228;2023-09-19T08:58:08;17.90;99.90
6581;DHT22;3324;50.796;7.228;2023-09-19T09:00:35;17.90;99.90
6581;DHT22;3324;50.796;7.228;2023-09-19T09:03:01;17.90;99.90
6581;DHT22;3324;50.796;7.228;2023-09-19T09:05:28;18.00;99.90
6581;DHT22;3324;50.796;7.228;2023-09-19T09:07:53;18.10;99.90
6581;DHT22;3324;50.796;7.228;2023-09-19T09:10:22;18.20;99.90
6581;DHT22;3324;50.796;7.228;2023-09-19T09:12:51;18.10;99.90
6581;DHT22;3324;50.796;7.228;2023-09-19T09:15:18;18.10;99.90
6581;DHT22;3324;50.796;7.228;2023-09-19T09:17:46;18.30;99.90
6581;DHT22;3324;50.796;7.228;2023-09-19T09:20:13;18.40;99.90
6581;DHT22;3324;50.796;7.228;2023-09-19T09:22:39;18.60;99.90
6581;DHT22;3324;50.796;7.228;2023-09-19T09:25:09;18.70;99.90
6581;DHT22;3324;50.796;7.228;2023-09-19T09:27:35;18.70;99.90
6581;DHT22;3324;50.796;7.228;2023-09-19T09:30:00;18.60;99.90
6581;DHT22;3324;50.796;7.228;2023-09-19T09:32:26;18.60;99.90
6581;DHT22;3324;50.796;7.228;2023-09-19T09:34:55;18.70;99.90
6581;DHT22;3324;50.796;7.228;2023-09-19T09:37:21;18.80;99.90
6581;DHT22;3324;50.796;7.228;2023-09-19T09:39:50;18.80;99.90
6581;DHT22;3324;50.796;7.228;2023-09-19T09:42:34;18.70;99.90
6581;DHT22;3324;50.796;7.228;2023-09-19T09:45:17;18.80;99.90
6581;DHT22;3324;50.796;7.228;2023-09-19T09:47:45;18.90;99.90
6581;DHT22;3324;50.796;7.228;2023-09-19T09:50:27;18.80;99.90
6581;DHT22;3324;50.796;7.228;2023-09-19T09:53:28;18.90;99.90
6581;DHT22;3324;50.796;7.228;2023-09-19T09:55:58;18.80;99.90
6581;DHT22;3324;50.796;7.228;2023-09-19T09:58:27;18.90;99.90
6581;DHT22;3324;50.796;7.228;2023-09-19T10:00:57;18.90;99.90
6581;DHT22;3324;50.796;7.228;2023-09-19T10:03:30;18.90;99.90
6581;DHT22;3324;50.796;7.228;2023-09-19T10:05:57;19.00;99.90
6581;DHT22;3324;50.796;7.228;2023-09-19T10:08:23;18.90;99.90
6581;DHT22;3324;50.796;7.228;2023-09-19T10:10:49;19.00;99.90
6581;DHT22;3324;50.796;7.228;2023-09-19T10:13:17;19.00;99.90
6581;DHT22;3324;50.796;7.228;2023-09-19T10:15:48;19.00;99.90
6581;DHT22;3324;50.796;7.228;2023-09-19T10:18:21;19.00;99.90
6581;DHT22;3324;50.796;7.228;2023-09-19T10:20:47;19.10;99.90
6581;DHT22;3324;50.796;7.228;2023-09-19T10:23:15;19.30;99.90
6581;DHT22;3324;50.796;7.228;2023-09-19T10:25:47;19.50;99.90
6581;DHT22;3324;50.796;7.228;2023-09-19T10:28:13;19.60;99.90
6581;DHT22;3324;50.796;7.228;2023-09-19T10:33:13;19.60;99.90
6581;DHT22;3324;50.796;7.228;2023-09-19T10:35:41;19.50;99.90
6581;DHT22;3324;50.796;7.228;2023-09-19T10:38:07;19.40;99.90
6581;DHT22;3324;50.796;7.228;2023-09-19T10:40:35;19.50;99.90
6581;DHT22;3324;50.796;7.228;2023-09-19T10:43:04;19.50;99.90
6581;DHT22;3324;50.796;7.228;2023-09-19T10:45:34;19.50;99.90
6581;DHT22;3324;50.796;7.228;2023-09-19T10:48:00;19.60;99.90
6581;DHT22;3324;50.796;7.228;2023-09-19T10:50:29;19.70;99.90
6581;DHT22;3324;50.796;7.228;2023-09-19T10:52:56;20.00;99.90
6581;DHT22;3324;50.796;7.228;2023-09-19T10:55:30;20.20;99.90
6581;DHT22;3324;50.796;7.228;2023-09-19T10:57:56;20.40;99.90
6581;DHT22;3324;50.796;7.228;2023-09-19T11:00:23;20.70;99.90
6581;DHT22;3324;50.796;7.228;2023-09-19T11:05:38;20.80;99.90
6581;DHT22;3324;50.796;7.228;2023-09-19T11:08:08;20.70;99.90
6581;DHT22;3324;50.796;7.228;2023-09-19T11:10:44;20.60;99.90
6581;DHT22;3324;50.796;7.228;2023-09-19T11:13:24;20.30;99.90
6581;DHT22;3324;50.796;7.228;2023-09-19T11:21:38;19.90;99.90
6581;DHT22;3324;50.796;7.228;2023-09-19T11:26:57;19.90;99.90
6581;DHT22;3324;50.796;7.228;2023-09-19T11:29:33;19.90;99.90
6581;DHT22;3324;50.796;7.228;2023-09-19T11:32:01;20.00;99.90
6581;DHT22;3324;50.796;7.228;2023-09-19T11:37:02;19.90;99.90
6581;DHT22;3324;50.796;7.228;2023-09-19T11:39:30;19.90;99.90
6581;DHT22;3324;50.796;7.228;2023-09-19T11:41:55;19.90;99.90
6581;DHT22;3324;50.796;7.228;2023-09-19T11:44:32;19.90;99.90
6581;DHT22;3324;50.796;7.228;2023-09-19T11:46:59;20.00;99.90
6581;DHT22;3324;50.796;7.228;2023-09-19T11:49:26;20.20;99.90
6581;DHT22;3324;50.796;7.228;2023-09-19T11:51:55;20.40;99.90
6581;DHT22;3324;50.796;7.228;2023-09-19T11:54:20;20.40;99.90
6581;DHT22;3324;50.796;7.228;2023-09-19T11:56:57;20.40;99.90
6581;DHT22;3324;50.796;7.228;2023-09-19T11:59:26;20.50;99.90
6581;DHT22;3324;50.796;7.228;2023-09-19T12:04:38;20.50;99.90
6581;DHT22;3324;50.796;7.228;2023-09-19T12:07:09;20.40;99.90
6581;DHT22;3324;50.796;7.228;2023-09-19T12:09:50;20.20;99.90
6581;DHT22;3324;50.796;7.228;2023-09-19T12:12:25;20.40;99.90
6581;DHT22;3324;50.796;7.228;2023-09-19T12:14:52;20.70;99.90
6581;DHT22;3324;50.796;7.228;2023-09-19T12:17:18;21.00;99.90
6581;DHT22;3324;50.796;7.228;2023-09-19T12:19:51;21.10;99.90
6581;DHT22;3324;50.796;7.228;2023-09-19T12:22:17;21.30;99.90
6581;DHT22;3324;50.796;7.228;2023-09-19T12:24:44;21.30;99.90
6581;DHT22;3324;50.796;7.228;2023-09-19T12:27:10;21.40;99.90
6581;DHT22;3324;50.796;7.228;2023-09-19T12:29:43;21.40;99.90
6581;DHT22;3324;50.796;7.228;2023-09-19T12:32:09;21.50;99.90
6581;DHT22;3324;50.796;7.228;2023-09-19T12:34:35;21.60;99.90
6581;DHT22;3324;50.796;7.228;2023-09-19T12:39:36;21.60;99.90
6581;DHT22;3324;50.796;7.228;2023-09-19T12:42:01;21.70;99.90
6581;DHT22;3324;50.796;7.228;2023-09-19T12:44:29;21.70;99.90
6581;DHT22;3324;50.796;7.228;2023-09-19T12:46:55;21.80;99.90
6581;DHT22;3324;50.796;7.228;2023-09-19T12:49:23;22.00;99.90
6581;DHT22;3324;50.796;7.228;2023-09-19T12:51:48;21.90;99.90
6581;DHT22;3324;50.796;7.228;2023-09-19T12:54:14;21.80;99.90
6581;DHT22;3324;50.796;7.228;2023-09-19T12:56:41;21.80;99.90
6581;DHT22;3324;50.796;7.228;2023-09-19T12:59:11;21.80;99.90
6581;DHT22;3324;50.796;7.228;2023-09-19T13:01:39;21.90;99.90
6581;DHT22;3324;50.796;7.228;2023-09-19T13:06:51;21.90;99.90
6581;DHT22;3324;50.796;7.228;2023-09-19T13:09:17;22.00;99.90
6581;DHT22;3324;50.796;7.228;2023-09-19T13:11:43;22.20;99.90
6581;DHT22;3324;50.796;7.228;2023-09-19T13:14:16;22.40;99.90
6581;DHT22;3324;50.796;7.228;2023-09-19T13:17:01;22.60;99.90
6581;DHT22;3324;50.796;7.228;2023-09-19T13:19:35;22.70;99.90
6581;DHT22;3324;50.796;7.228;2023-09-19T13:22:00;22.90;99.90
6581;DHT22;3324;50.796;7.228;2023-09-19T13:24:26;23.10;99.90
6581;DHT22;3324;50.796;7.228;2023-09-19T13:26:53;23.00;99.90
6581;DHT22;3324;50.796;7.228;2023-09-19T13:29:18;22.90;99.90
6581;DHT22;3324;50.796;7.228;2023-09-19T13:31:48;22.70;99.90
6581;DHT22;3324;50.796;7.228;2023-09-19T13:34:13;22.40;99.90
6581;DHT22;3324;50.796;7.228;2023-09-19T13:36:41;22.40;99.90
6581;DHT22;3324;50.796;7.228;2023-09-19T13:39:07;22.50;99.90
6581;DHT22;3324;50.796;7.228;2023-09-19T13:41:34;22.60;99.90
6581;DHT22;3324;50.796;7.228;2023-09-19T13:44:02;22.70;99.90
6581;DHT22;3324;50.796;7.228;2023-09-19T13:46:27;22.80;99.90
6581;DHT22;3324;50.796;7.228;2023-09-19T13:48:53;22.60;99.90
6581;DHT22;3324;50.796;7.228;2023-09-19T13:51:27;22.40;99.90
6581;DHT22;3324;50.796;7.228;2023-09-19T13:53:54;22.20;99.90
6581;DHT22;3324;50.796;7.228;2023-09-19T13:56:19;22.20;99.90
6581;DHT22;3324;50.796;7.228;2023-09-19T13:58:45;22.10;99.90
6581;DHT22;3324;50.796;7.228;2023-09-19T14:01:10;22.00;99.90
6581;DHT22;3324;50.796;7.228;2023-09-19T14:03:38;21.90;99.90
6581;DHT22;3324;50.796;7.228;2023-09-19T14:06:04;21.80;99.90
6581;DHT22;3324;50.796;7.228;2023-09-19T14:08:29;21.70;99.90
6581;DHT22;3324;50.796;7.228;2023-09-19T14:10:55;21.70;99.90
6581;DHT22;3324;50.796;7.228;2023-09-19T14:13:20;21.60;99.90
6581;DHT22;3324;50.796;7.228;2023-09-19T14:15:46;21.70;99.90
6581;DHT22;3324;50.796;7.228;2023-09-19T14:18:11;21.70;99.90
6581;DHT22;3324;50.796;7.228;2023-09-19T14:20:38;21.90;99.90
6581;DHT22;3324;50.796;7.228;2023-09-19T14:23:04;22.00;99.90
6581;DHT22;3324;50.796;7.228;2023-09-19T14:25:30;22.00;99.90
6581;DHT22;3324;50.796;7.228;2023-09-19T14:27:55;21.90;99.90
6581;DHT22;3324;50.796;7.228;2023-09-19T14:30:21;22.10;99.90
6581;DHT22;3324;50.796;7.228;2023-09-19T14:32:47;22.30;99.90
6581;DHT22;3324;50.796;7.228;2023-09-19T14:35:12;22.30;99.90
6581;DHT22;3324;50.796;7.228;2023-09-19T14:37:39;22.30;99.90
6581;DHT22;3324;50.796;7.228;2023-09-19T14:40:05;22.10;99.90
6581;DHT22;3324;50.796;7.228;2023-09-19T14:42:38;21.80;99.90
6581;DHT22;3324;50.796;7.228;2023-09-19T14:45:04;21.70;99.90
6581;DHT22;3324;50.796;7.228;2023-09-19T14:47:30;21.60;99.90
6581;DHT22;3324;50.796;7.228;2023-09-19T14:50:00;21.50;99.90
6581;DHT22;3324;50.796;7.228;2023-09-19T14:52:25;21.50;99.90
6581;DHT22;3324;50.796;7.228;2023-09-19T14:54:53;21.50;99.90
6581;DHT22;3324;50.796;7.228;2023-09-19T14:57:19;21.60;99.90
6581;DHT22;3324;50.796;7.228;2023-09-19T14:59:45;21.60;99.90
6581;DHT22;3324;50.796;7.228;2023-09-19T15:02:10;21.80;99.90
6581;DHT22;3324;50.796;7.228;2023-09-19T15:04:36;21.90;99.90
6581;DHT22;3324;50.796;7.228;2023-09-19T15:07:02;21.90;99.90
6581;DHT22;3324;50.796;7.228;2023-09-19T15:09:28;21.90;99.90
6581;DHT22;3324;50.796;7.228;2023-09-19T15:11:54;21.70;99.90
6581;DHT22;3324;50.796;7.228;2023-09-19T15:14:19;21.50;99.90
6581;DHT22;3324;50.796;7.228;2023-09-19T15:16:45;21.30;99.90
6581;DHT22;3324;50.796;7.228;2023-09-19T15:19:10;21.30;99.90
6581;DHT22;3324;50.796;7.228;2023-09-19T15:21:36;21.40;99.90
6581;DHT22;3324;50.796;7.228;2023-09-19T15:24:05;21.30;99.90
6581;DHT22;3324;50.796;7.228;2023-09-19T15:26:33;21.20;99.90
6581;DHT22;3324;50.796;7.228;2023-09-19T15:28:59;21.20;99.90
6581;DHT22;3324;50.796;7.228;2023-09-19T15:31:25;21.10;99.90
6581;DHT22;3324;50.796;7.228;2023-09-19T15:33:51;21.10;99.90
6581;DHT22;3324;50.796;7.228;2023-09-19T15:36:16;21.00;99.90
6581;DHT22;3324;50.796;7.228;2023-09-19T15:41:17;20.90;99.90
6581;DHT22;3324;50.796;7.228;2023-09-19T15:43:42;20.90;99.90
6581;DHT22;3324;50.796;7.228;2023-09-19T15:46:08;20.90;99.90
6581;DHT22;3324;50.796;7.228;2023-09-19T15:48:33;20.90;99.90
6581;DHT22;3324;50.796;7.228;2023-09-19T15:51:02;20.90;99.90
6581;DHT22;3324;50.796;7.228;2023-09-19T15:53:28;20.90;99.90
6581;DHT22;3324;50.796;7.228;2023-09-19T15:55:54;20.90;99.90
6581;DHT22;3324;50.796;7.228;2023-09-19T15:58:20;20.80;99.90
6581;DHT22;3324;50.796;7.228;2023-09-19T16:00:45;20.80;99.90
6581;DHT22;3324;50.796;7.228;2023-09-19T16:03:11;20.80;99.90
6581;DHT22;3324;50.796;7.228;2023-09-19T16:05:37;20.90;99.90
6581;DHT22;3324;50.796;7.228;2023-09-19T16:08:03;20.90;99.90
6581;DHT22;3324;50.796;7.228;2023-09-19T16:10:28;20.90;99.90
6581;DHT22;3324;50.796;7.228;2023-09-19T16:12:54;20.90;99.90
6581;DHT22;3324;50.796;7.228;2023-09-19T16:15:20;20.90;99.90
6581;DHT22;3324;50.796;7.228;2023-09-19T16:17:46;20.90;99.90
6581;DHT22;3324;50.796;7.228;2023-09-19T16:20:11;20.90;99.90
6581;DHT22;3324;50.796;7.228;2023-09-19T16:22:38;20.80;99.90
6581;DHT22;3324;50.796;7.228;2023-09-19T16:25:04;20.70;99.90
6581;DHT22;3324;50.796;7.228;2023-09-19T16:27:29;20.70;99.90
6581;DHT22;3324;50.796;7.228;2023-09-19T16:29:55;20.80;99.90
6581;DHT22;3324;50.796;7.228;2023-09-19T16:32:20;20.80;99.90
6581;DHT22;3324;50.796;7.228;2023-09-19T16:34:46;20.80;99.90
6581;DHT22;3324;50.796;7.228;2023-09-19T16:37:11;20.80;99.90
6581;DHT22;3324;50.796;7.228;2023-09-19T16:39:39;20.70;99.90
6581;DHT22;3324;50.796;7.228;2023-09-19T16:42:06;20.70;99.90
6581;DHT22;3324;50.796;7.228;2023-09-19T16:44:33;20.60;99.90
6581;DHT22;3324;50.796;7.228;2023-09-19T16:46:59;20.60;99.90
6581;DHT22;3324;50.796;7.228;2023-09-19T16:49:25;20.60;99.90